sensor_id;sensor_type;location;lat;lon;timestamp;P1;durP1;ratioP1;P2;durP2;ratioP2
28455;SDS011;15682;56.742;38.866;2023-02-01T00:01:11;26.1;;;15.1;;
28455;SDS011;15682;56.742;38.866;2023-02-01T00:03:11;29.9;;;15.5;;
28455;SDS011;15682;56.742;38.866;2023-02-01T00:05:11;32.1;;;16.2;;
28455;SDS011;15682;56.742;38.866;2023-02-01T00:07:11;29.6;;;15.8;;
28455;SDS011;15682;56.742;38.866;2023-02-01T00:09:11;28.6;;;16.3;;
28455;SDS011;15682;56.742;38.866;2023-02-01T00:11:11;30.6;;;16.6;;
28455;SDS011;15682;56.742;38.866;2023-02-01T00:13:10;30.5;;;17.0;;
28455;SDS011;15682;56.742;38.866;2023-02-01T00:15:10;31.7;;;16.3;;
28455;SDS011;15682;56.742;38.866;2023-02-01T00:17:10;33.6;;;16.6;;
28455;SDS011;15682;56.742;38.866;2023-02-01T00:19:11;30.8;;;17.0;;
28455;SDS011;15682;56.742;38.866;2023-02-01T00:21:10;27.0;;;15.6;;
28455;SDS011;15682;56.742;38.866;2023-02-01T00:23:10;28.9;;;15.8;;
28455;SDS011;15682;56.742;38.866;2023-02-01T00:25:10;29.7;;;15.5;;
28455;SDS011;15682;56.742;38.866;2023-02-01T00:27:10;26.2;;;15.0;;
28455;SDS011;15682;56.742;38.866;2023-02-01T00:29:12;25.9;;;14.9;;
28455;SDS011;15682;56.742;38.866;2023-02-01T00:31:10;28.5;;;16.2;;
28455;SDS011;15682;56.742;38.866;2023-02-01T00:33:10;28.2;;;15.2;;
28455;SDS011;15682;56.742;38.866;2023-02-01T00:35:09;28.6;;;15.8;;
28455;SDS011;15682;56.742;38.866;2023-02-01T00:37:09;26.5;;;14.9;;
28455;SDS011;15682;56.742;38.866;2023-02-01T00:39:09;27.3;;;15.6;;
28455;SDS011;15682;56.742;38.866;2023-02-01T00:41:10;25.9;;;14.9;;
28455;SDS011;15682;56.742;38.866;2023-02-01T00:43:09;28.5;;;15.6;;
28455;SDS011;15682;56.742;38.866;2023-02-01T00:45:09;28.1;;;15.8;;
28455;SDS011;15682;56.742;38.866;2023-02-01T00:47:09;29.8;;;16.0;;
28455;SDS011;15682;56.742;38.866;2023-02-01T00:49:09;29.7;;;15.7;;
28455;SDS011;15682;56.742;38.866;2023-02-01T00:51:10;28.9;;;15.6;;
28455;SDS011;15682;56.742;38.866;2023-02-01T00:53:09;30.0;;;16.3;;
28455;SDS011;15682;56.742;38.866;2023-02-01T00:55:09;28.9;;;15.9;;
28455;SDS011;15682;56.742;38.866;2023-02-01T00:57:08;27.8;;;15.7;;
28455;SDS011;15682;56.742;38.866;2023-02-01T00:59:10;29.9;;;16.1;;
28455;SDS011;15682;56.742;38.866;2023-02-01T01:01:09;28.9;;;15.9;;
28455;SDS011;15682;56.742;38.866;2023-02-01T01:03:08;30.6;;;16.1;;
28455;SDS011;15682;56.742;38.866;2023-02-01T01:05:08;27.3;;;15.3;;
28455;SDS011;15682;56.742;38.866;2023-02-01T01:07:08;30.5;;;15.7;;
28455;SDS011;15682;56.742;38.866;2023-02-01T01:09:08;29.6;;;16.1;;
28455;SDS011;15682;56.742;38.866;2023-02-01T01:11:09;29.0;;;15.4;;
28455;SDS011;15682;56.742;38.866;2023-02-01T01:13:08;28.9;;;15.4;;
28455;SDS011;15682;56.742;38.866;2023-02-01T01:15:08;27.6;;;14.7;;
28455;SDS011;15682;56.742;38.866;2023-02-01T01:17:08;26.7;;;15.2;;
28455;SDS011;15682;56.742;38.866;2023-02-01T01:19:07;28.7;;;15.0;;
28455;SDS011;15682;56.742;38.866;2023-02-01T01:21:08;27.5;;;15.3;;
28455;SDS011;15682;56.742;38.866;2023-02-01T01:23:08;27.8;;;15.9;;
28455;SDS011;15682;56.742;38.866;2023-02-01T01:25:07;26.0;;;15.0;;
28455;SDS011;15682;56.742;38.866;2023-02-01T01:27:07;25.7;;;14.8;;
28455;SDS011;15682;56.742;38.866;2023-02-01T01:29:08;29.7;;;15.8;;
28455;SDS011;15682;56.742;38.866;2023-02-01T01:31:07;30.7;;;15.3;;
28455;SDS011;15682;56.742;38.866;2023-02-01T01:33:07;25.1;;;14.3;;
28455;SDS011;15682;56.742;38.866;2023-02-01T01:35:07;30.3;;;15.4;;
28455;SDS011;15682;56.742;38.866;2023-02-01T01:37:07;29.6;;;15.7;;
28455;SDS011;15682;56.742;38.866;2023-02-01T01:39:06;29.0;;;16.0;;
28455;SDS011;15682;56.742;38.866;2023-02-01T01:41:07;26.8;;;15.1;;
28455;SDS011;15682;56.742;38.866;2023-02-01T01:43:11;29.4;;;15.6;;
28455;SDS011;15682;56.742;38.866;2023-02-01T01:45:07;26.9;;;14.9;;
28455;SDS011;15682;56.742;38.866;2023-02-01T01:47:06;30.3;;;16.3;;
28455;SDS011;15682;56.742;38.866;2023-02-01T01:49:07;27.9;;;15.8;;
28455;SDS011;15682;56.742;38.866;2023-02-01T01:51:07;30.3;;;15.1;;
28455;SDS011;15682;56.742;38.866;2023-02-01T01:53:07;30.9;;;15.9;;
28455;SDS011;15682;56.742;38.866;2023-02-01T01:55:06;31.8;;;15.7;;
28455;SDS011;15682;56.742;38.866;2023-02-01T01:57:06;29.1;;;16.0;;
28455;SDS011;15682;56.742;38.866;2023-02-01T01:59:06;30.1;;;16.5;;
28455;SDS011;15682;56.742;38.866;2023-02-01T02:01:06;30.3;;;15.5;;
28455;SDS011;15682;56.742;38.866;2023-02-01T02:03:07;28.8;;;15.5;;
28455;SDS011;15682;56.742;38.866;2023-02-01T02:05:06;29.3;;;15.4;;
28455;SDS011;15682;56.742;38.866;2023-02-01T02:07:08;28.6;;;15.2;;
28455;SDS011;15682;56.742;38.866;2023-02-01T02:09:05;29.0;;;16.2;;
28455;SDS011;15682;56.742;38.866;2023-02-01T02:11:05;28.7;;;15.8;;
28455;SDS011;15682;56.742;38.866;2023-02-01T02:13:05;31.1;;;15.9;;
28455;SDS011;15682;56.742;38.866;2023-02-01T02:15:05;28.9;;;15.9;;
28455;SDS011;15682;56.742;38.866;2023-02-01T02:17:13;32.8;;;16.4;;
28455;SDS011;15682;56.742;38.866;2023-02-01T02:19:13;30.2;;;15.9;;
28455;SDS011;15682;56.742;38.866;2023-02-01T02:21:10;27.1;;;15.5;;
28455;SDS011;15682;56.742;38.866;2023-02-01T02:23:13;28.8;;;15.7;;
28455;SDS011;15682;56.742;38.866;2023-02-01T02:25:16;27.8;;;15.4;;
28455;SDS011;15682;56.742;38.866;2023-02-01T02:27:07;32.6;;;16.0;;
28455;SDS011;15682;56.742;38.866;2023-02-01T02:29:12;32.1;;;16.2;;
28455;SDS011;15682;56.742;38.866;2023-02-01T02:31:10;28.0;;;14.9;;
28455;SDS011;15682;56.742;38.866;2023-02-01T02:35:05;28.5;;;15.0;;
28455;SDS011;15682;56.742;38.866;2023-02-01T02:37:06;33.5;;;17.5;;
28455;SDS011;15682;56.742;38.866;2023-02-01T02:39:06;28.6;;;15.2;;
28455;SDS011;15682;56.742;38.866;2023-02-01T02:41:13;29.8;;;16.8;;
28455;SDS011;15682;56.742;38.866;2023-02-01T02:43:05;30.3;;;15.9;;
28455;SDS011;15682;56.742;38.866;2023-02-01T02:45:05;30.6;;;16.4;;
28455;SDS011;15682;56.742;38.866;2023-02-01T02:47:05;31.5;;;16.4;;
28455;SDS011;15682;56.742;38.866;2023-02-01T02:49:04;29.5;;;16.8;;
28455;SDS011;15682;56.742;38.866;2023-02-01T02:51:04;33.7;;;16.7;;
28455;SDS011;15682;56.742;38.866;2023-02-01T02:53:05;32.6;;;17.1;;
28455;SDS011;15682;56.742;38.866;2023-02-01T02:55:04;33.2;;;17.7;;
28455;SDS011;15682;56.742;38.866;2023-02-01T02:57:04;32.6;;;17.7;;
28455;SDS011;15682;56.742;38.866;2023-02-01T02:59:03;34.6;;;17.8;;
28455;SDS011;15682;56.742;38.866;2023-02-01T03:01:03;30.8;;;16.8;;
28455;SDS011;15682;56.742;38.866;2023-02-01T03:03:03;31.3;;;17.0;;
28455;SDS011;15682;56.742;38.866;2023-02-01T03:05:03;30.5;;;17.1;;
28455;SDS011;15682;56.742;38.866;2023-02-01T03:07:12;36.4;;;18.3;;
28455;SDS011;15682;56.742;38.866;2023-02-01T03:09:04;38.5;;;18.9;;
28455;SDS011;15682;56.742;38.866;2023-02-01T03:11:04;34.5;;;17.8;;
28455;SDS011;15682;56.742;38.866;2023-02-01T03:13:04;36.1;;;17.8;;
28455;SDS011;15682;56.742;38.866;2023-02-01T03:15:05;34.3;;;18.4;;
28455;SDS011;15682;56.742;38.866;2023-02-01T03:17:03;33.2;;;17.7;;
28455;SDS011;15682;56.742;38.866;2023-02-01T03:19:03;36.7;;;18.9;;
28455;SDS011;15682;56.742;38.866;2023-02-01T03:21:04;33.1;;;17.9;;
28455;SDS011;15682;56.742;38.866;2023-02-01T03:23:02;33.9;;;18.8;;
28455;SDS011;15682;56.742;38.866;2023-02-01T03:25:04;31.9;;;17.9;;
28455;SDS011;15682;56.742;38.866;2023-02-01T03:27:04;34.5;;;17.4;;
28455;SDS011;15682;56.742;38.866;2023-02-01T03:29:05;35.8;;;19.5;;
28455;SDS011;15682;56.742;38.866;2023-02-01T03:31:02;39.0;;;20.7;;
28455;SDS011;15682;56.742;38.866;2023-02-01T03:33:03;36.6;;;20.2;;
28455;SDS011;15682;56.742;38.866;2023-02-01T03:35:02;35.4;;;19.9;;
28455;SDS011;15682;56.742;38.866;2023-02-01T03:37:02;34.7;;;19.4;;
28455;SDS011;15682;56.742;38.866;2023-02-01T03:39:02;33.1;;;17.8;;
28455;SDS011;15682;56.742;38.866;2023-02-01T03:41:03;34.5;;;18.4;;
28455;SDS011;15682;56.742;38.866;2023-02-01T03:43:02;33.9;;;18.3;;
28455;SDS011;15682;56.742;38.866;2023-02-01T03:45:03;32.9;;;18.2;;
28455;SDS011;15682;56.742;38.866;2023-02-01T03:47:02;35.5;;;19.2;;
28455;SDS011;15682;56.742;38.866;2023-02-01T03:49:02;37.6;;;19.3;;
28455;SDS011;15682;56.742;38.866;2023-02-01T03:51:01;35.1;;;19.1;;
28455;SDS011;15682;56.742;38.866;2023-02-01T03:53:02;37.9;;;20.1;;
28455;SDS011;15682;56.742;38.866;2023-02-01T03:55:01;35.6;;;19.4;;
28455;SDS011;15682;56.742;38.866;2023-02-01T03:57:03;38.4;;;19.1;;
28455;SDS011;15682;56.742;38.866;2023-02-01T03:59:01;36.3;;;19.1;;
28455;SDS011;15682;56.742;38.866;2023-02-01T04:01:01;34.8;;;19.4;;
28455;SDS011;15682;56.742;38.866;2023-02-01T04:03:01;34.5;;;19.5;;
28455;SDS011;15682;56.742;38.866;2023-02-01T04:05:01;39.8;;;20.1;;
28455;SDS011;15682;56.742;38.866;2023-02-01T04:07:01;37.1;;;19.9;;
28455;SDS011;15682;56.742;38.866;2023-02-01T04:09:01;36.2;;;19.9;;
28455;SDS011;15682;56.742;38.866;2023-02-01T04:11:01;39.7;;;21.2;;
28455;SDS011;15682;56.742;38.866;2023-02-01T04:13:00;40.7;;;20.8;;
28455;SDS011;15682;56.742;38.866;2023-02-01T04:15:00;37.1;;;20.1;;
28455;SDS011;15682;56.742;38.866;2023-02-01T04:17:01;36.4;;;20.5;;
28455;SDS011;15682;56.742;38.866;2023-02-01T04:19:00;37.9;;;20.0;;
28455;SDS011;15682;56.742;38.866;2023-02-01T04:21:00;37.4;;;20.4;;
28455;SDS011;15682;56.742;38.866;2023-02-01T04:23:00;38.0;;;21.0;;
28455;SDS011;15682;56.742;38.866;2023-02-01T04:25:00;40.9;;;20.2;;
28455;SDS011;15682;56.742;38.866;2023-02-01T04:27:00;41.3;;;20.5;;
28455;SDS011;15682;56.742;38.866;2023-02-01T04:29:00;40.7;;;21.5;;
28455;SDS011;15682;56.742;38.866;2023-02-01T04:31:00;36.5;;;20.8;;
28455;SDS011;15682;56.742;38.866;2023-02-01T04:33:00;41.6;;;22.9;;
28455;SDS011;15682;56.742;38.866;2023-02-01T04:35:00;48.3;;;25.7;;
28455;SDS011;15682;56.742;38.866;2023-02-01T04:37:00;40.9;;;22.8;;
28455;SDS011;15682;56.742;38.866;2023-02-01T04:39:00;40.3;;;22.2;;
28455;SDS011;15682;56.742;38.866;2023-02-01T04:41:00;40.2;;;22.5;;
28455;SDS011;15682;56.742;38.866;2023-02-01T04:43:00;40.2;;;22.0;;
28455;SDS011;15682;56.742;38.866;2023-02-01T04:45:00;41.8;;;22.3;;
28455;SDS011;15682;56.742;38.866;2023-02-01T04:46:59;42.6;;;23.0;;
28455;SDS011;15682;56.742;38.866;2023-02-01T04:48:59;44.2;;;22.3;;
28455;SDS011;15682;56.742;38.866;2023-02-01T04:50:59;47.3;;;22.8;;
28455;SDS011;15682;56.742;38.866;2023-02-01T04:52:59;43.0;;;22.6;;
28455;SDS011;15682;56.742;38.866;2023-02-01T04:54:59;43.7;;;22.8;;
28455;SDS011;15682;56.742;38.866;2023-02-01T04:56:59;44.4;;;22.8;;
28455;SDS011;15682;56.742;38.866;2023-02-01T04:58:59;44.0;;;21.6;;
28455;SDS011;15682;56.742;38.866;2023-02-01T05:00:59;45.8;;;23.3;;
28455;SDS011;15682;56.742;38.866;2023-02-01T05:02:59;44.7;;;22.7;;
28455;SDS011;15682;56.742;38.866;2023-02-01T05:04:59;44.0;;;23.0;;
28455;SDS011;15682;56.742;38.866;2023-02-01T05:06:59;43.2;;;22.5;;
28455;SDS011;15682;56.742;38.866;2023-02-01T05:08:59;47.4;;;24.1;;
28455;SDS011;15682;56.742;38.866;2023-02-01T05:10:59;50.6;;;26.6;;
28455;SDS011;15682;56.742;38.866;2023-02-01T05:12:59;56.5;;;27.5;;
28455;SDS011;15682;56.742;38.866;2023-02-01T05:14:58;53.9;;;27.2;;
28455;SDS011;15682;56.742;38.866;2023-02-01T05:16:58;57.4;;;27.6;;
28455;SDS011;15682;56.742;38.866;2023-02-01T05:18:58;54.2;;;26.4;;
28455;SDS011;15682;56.742;38.866;2023-02-01T05:20:58;50.2;;;25.5;;
28455;SDS011;15682;56.742;38.866;2023-02-01T05:22:58;50.8;;;25.4;;
28455;SDS011;15682;56.742;38.866;2023-02-01T05:24:58;50.3;;;26.0;;
28455;SDS011;15682;56.742;38.866;2023-02-01T05:26:58;49.5;;;24.9;;
28455;SDS011;15682;56.742;38.866;2023-02-01T05:28:58;52.5;;;25.7;;
28455;SDS011;15682;56.742;38.866;2023-02-01T05:30:58;56.2;;;25.8;;
28455;SDS011;15682;56.742;38.866;2023-02-01T05:32:58;64.9;;;28.4;;
28455;SDS011;15682;56.742;38.866;2023-02-01T05:34:58;66.4;;;28.0;;
28455;SDS011;15682;56.742;38.866;2023-02-01T05:36:58;59.0;;;28.1;;
28455;SDS011;15682;56.742;38.866;2023-02-01T05:38:58;59.0;;;27.7;;
28455;SDS011;15682;56.742;38.866;2023-02-01T05:40:57;53.6;;;26.6;;
28455;SDS011;15682;56.742;38.866;2023-02-01T05:42:57;53.4;;;26.7;;
28455;SDS011;15682;56.742;38.866;2023-02-01T05:44:57;59.1;;;27.9;;
28455;SDS011;15682;56.742;38.866;2023-02-01T05:46:57;60.8;;;28.8;;
28455;SDS011;15682;56.742;38.866;2023-02-01T05:48:57;56.2;;;28.0;;
28455;SDS011;15682;56.742;38.866;2023-02-01T05:50:57;56.7;;;27.3;;
28455;SDS011;15682;56.742;38.866;2023-02-01T05:52:57;57.5;;;28.2;;
28455;SDS011;15682;56.742;38.866;2023-02-01T05:54:57;55.2;;;26.9;;
28455;SDS011;15682;56.742;38.866;2023-02-01T05:56:57;56.0;;;27.9;;
28455;SDS011;15682;56.742;38.866;2023-02-01T05:58:57;56.5;;;27.0;;
28455;SDS011;15682;56.742;38.866;2023-02-01T06:00:58;56.5;;;26.7;;
28455;SDS011;15682;56.742;38.866;2023-02-01T06:02:57;56.2;;;25.8;;
28455;SDS011;15682;56.742;38.866;2023-02-01T06:04:57;55.9;;;26.4;;
28455;SDS011;15682;56.742;38.866;2023-02-01T06:06:56;54.2;;;25.6;;
28455;SDS011;15682;56.742;38.866;2023-02-01T06:08:56;56.8;;;25.0;;
28455;SDS011;15682;56.742;38.866;2023-02-01T06:10:58;49.7;;;25.2;;
28455;SDS011;15682;56.742;38.866;2023-02-01T06:12:56;51.7;;;24.3;;
28455;SDS011;15682;56.742;38.866;2023-02-01T06:14:56;54.6;;;25.7;;
28455;SDS011;15682;56.742;38.866;2023-02-01T06:16:56;53.5;;;26.5;;
28455;SDS011;15682;56.742;38.866;2023-02-01T06:18:56;55.7;;;27.0;;
28455;SDS011;15682;56.742;38.866;2023-02-01T06:20:57;55.7;;;28.4;;
28455;SDS011;15682;56.742;38.866;2023-02-01T06:22:56;56.2;;;27.0;;
28455;SDS011;15682;56.742;38.866;2023-02-01T06:24:56;57.0;;;27.5;;
28455;SDS011;15682;56.742;38.866;2023-02-01T06:26:56;65.1;;;27.0;;
28455;SDS011;15682;56.742;38.866;2023-02-01T06:28:56;58.1;;;26.9;;
28455;SDS011;15682;56.742;38.866;2023-02-01T06:30:56;56.5;;;27.0;;
28455;SDS011;15682;56.742;38.866;2023-02-01T06:32:56;50.8;;;24.1;;
28455;SDS011;15682;56.742;38.866;2023-02-01T06:34:55;49.2;;;23.9;;
28455;SDS011;15682;56.742;38.866;2023-02-01T06:36:55;56.3;;;25.5;;
28455;SDS011;15682;56.742;38.866;2023-02-01T06:38:55;53.1;;;25.6;;
28455;SDS011;15682;56.742;38.866;2023-02-01T06:40:56;55.6;;;27.0;;
28455;SDS011;15682;56.742;38.866;2023-02-01T06:42:55;52.9;;;25.9;;
28455;SDS011;15682;56.742;38.866;2023-02-01T06:44:55;55.0;;;26.8;;
28455;SDS011;15682;56.742;38.866;2023-02-01T06:46:55;56.1;;;27.6;;
28455;SDS011;15682;56.742;38.866;2023-02-01T06:48:55;56.9;;;28.4;;
28455;SDS011;15682;56.742;38.866;2023-02-01T06:50:55;56.4;;;27.9;;
28455;SDS011;15682;56.742;38.866;2023-02-01T06:52:55;52.6;;;26.8;;
28455;SDS011;15682;56.742;38.866;2023-02-01T06:54:55;56.4;;;27.5;;
28455;SDS011;15682;56.742;38.866;2023-02-01T06:56:55;49.1;;;25.9;;
28455;SDS011;15682;56.742;38.866;2023-02-01T06:58:55;52.6;;;24.8;;
28455;SDS011;15682;56.742;38.866;2023-02-01T07:00:54;46.8;;;25.6;;
28455;SDS011;15682;56.742;38.866;2023-02-01T07:02:54;49.3;;;24.4;;
28455;SDS011;15682;56.742;38.866;2023-02-01T07:04:54;45.8;;;23.6;;
28455;SDS011;15682;56.742;38.866;2023-02-01T07:06:54;44.8;;;23.1;;
28455;SDS011;15682;56.742;38.866;2023-02-01T07:08:54;47.3;;;23.0;;
28455;SDS011;15682;56.742;38.866;2023-02-01T07:10:54;45.8;;;23.0;;
28455;SDS011;15682;56.742;38.866;2023-02-01T07:12:56;42.6;;;21.9;;
28455;SDS011;15682;56.742;38.866;2023-02-01T07:14:54;45.8;;;22.4;;
28455;SDS011;15682;56.742;38.866;2023-02-01T07:16:54;41.7;;;20.8;;
28455;SDS011;15682;56.742;38.866;2023-02-01T07:18:54;38.9;;;20.6;;
28455;SDS011;15682;56.742;38.866;2023-02-01T07:20:54;41.8;;;22.1;;
28455;SDS011;15682;56.742;38.866;2023-02-01T07:22:55;43.6;;;22.4;;
28455;SDS011;15682;56.742;38.866;2023-02-01T07:24:54;40.5;;;21.6;;
28455;SDS011;15682;56.742;38.866;2023-02-01T07:26:53;48.2;;;22.1;;
28455;SDS011;15682;56.742;38.866;2023-02-01T07:28:53;44.0;;;21.6;;
28455;SDS011;15682;56.742;38.866;2023-02-01T07:30:53;44.7;;;22.4;;
28455;SDS011;15682;56.742;38.866;2023-02-01T07:32:53;43.7;;;22.1;;
28455;SDS011;15682;56.742;38.866;2023-02-01T07:34:53;49.0;;;23.3;;
28455;SDS011;15682;56.742;38.866;2023-02-01T07:36:53;44.2;;;22.6;;
28455;SDS011;15682;56.742;38.866;2023-02-01T07:38:53;44.9;;;23.2;;
28455;SDS011;15682;56.742;38.866;2023-02-01T07:40:56;45.0;;;23.2;;
28455;SDS011;15682;56.742;38.866;2023-02-01T07:42:53;47.7;;;23.2;;
28455;SDS011;15682;56.742;38.866;2023-02-01T07:44:53;47.4;;;22.6;;
28455;SDS011;15682;56.742;38.866;2023-02-01T07:46:53;41.4;;;21.5;;
28455;SDS011;15682;56.742;38.866;2023-02-01T07:48:53;43.0;;;21.8;;
28455;SDS011;15682;56.742;38.866;2023-02-01T07:50:57;44.6;;;22.3;;
28455;SDS011;15682;56.742;38.866;2023-02-01T07:52:53;41.6;;;21.7;;
28455;SDS011;15682;56.742;38.866;2023-02-01T07:54:52;45.9;;;23.0;;
28455;SDS011;15682;56.742;38.866;2023-02-01T07:56:52;44.4;;;21.3;;
28455;SDS011;15682;56.742;38.866;2023-02-01T07:58:53;47.3;;;21.9;;
28455;SDS011;15682;56.742;38.866;2023-02-01T08:00:52;40.7;;;21.3;;
28455;SDS011;15682;56.742;38.866;2023-02-01T08:02:52;39.2;;;21.6;;
28455;SDS011;15682;56.742;38.866;2023-02-01T08:04:52;42.5;;;21.9;;
28455;SDS011;15682;56.742;38.866;2023-02-01T08:06:52;39.4;;;20.7;;
28455;SDS011;15682;56.742;38.866;2023-02-01T08:08:52;42.5;;;21.2;;
28455;SDS011;15682;56.742;38.866;2023-02-01T08:10:56;44.3;;;21.4;;
28455;SDS011;15682;56.742;38.866;2023-02-01T08:12:57;40.3;;;20.3;;
28455;SDS011;15682;56.742;38.866;2023-02-01T08:14:52;37.3;;;20.8;;
28455;SDS011;15682;56.742;38.866;2023-02-01T08:16:52;39.1;;;20.8;;
28455;SDS011;15682;56.742;38.866;2023-02-01T08:18:52;39.5;;;20.5;;
28455;SDS011;15682;56.742;38.866;2023-02-01T08:20:52;39.7;;;20.5;;
28455;SDS011;15682;56.742;38.866;2023-02-01T08:22:52;36.2;;;19.5;;
28455;SDS011;15682;56.742;38.866;2023-02-01T08:24:51;39.2;;;20.4;;
28455;SDS011;15682;56.742;38.866;2023-02-01T08:26:51;37.9;;;20.5;;
28455;SDS011;15682;56.742;38.866;2023-02-01T08:28:52;38.3;;;20.3;;
28455;SDS011;15682;56.742;38.866;2023-02-01T08:30:51;37.1;;;20.4;;
28455;SDS011;15682;56.742;38.866;2023-02-01T08:32:51;36.4;;;20.2;;
28455;SDS011;15682;56.742;38.866;2023-02-01T08:34:51;38.2;;;20.7;;
28455;SDS011;15682;56.742;38.866;2023-02-01T08:36:52;35.8;;;20.4;;
28455;SDS011;15682;56.742;38.866;2023-02-01T08:38:51;45.3;;;20.9;;
28455;SDS011;15682;56.742;38.866;2023-02-01T08:40:51;45.7;;;20.9;;
28455;SDS011;15682;56.742;38.866;2023-02-01T08:42:51;40.3;;;21.2;;
28455;SDS011;15682;56.742;38.866;2023-02-01T08:44:51;39.0;;;20.3;;
28455;SDS011;15682;56.742;38.866;2023-02-01T08:46:51;36.8;;;21.2;;
28455;SDS011;15682;56.742;38.866;2023-02-01T08:48:51;40.6;;;22.0;;
28455;SDS011;15682;56.742;38.866;2023-02-01T08:50:51;39.8;;;21.0;;
28455;SDS011;15682;56.742;38.866;2023-02-01T08:52:51;39.4;;;21.0;;
28455;SDS011;15682;56.742;38.866;2023-02-01T08:54:50;38.0;;;21.0;;
28455;SDS011;15682;56.742;38.866;2023-02-01T08:56:50;37.6;;;20.0;;
28455;SDS011;15682;56.742;38.866;2023-02-01T08:58:50;39.7;;;21.3;;
28455;SDS011;15682;56.742;38.866;2023-02-01T09:00:50;36.7;;;20.7;;
28455;SDS011;15682;56.742;38.866;2023-02-01T09:02:50;38.8;;;21.3;;
28455;SDS011;15682;56.742;38.866;2023-02-01T09:04:50;38.7;;;20.5;;
28455;SDS011;15682;56.742;38.866;2023-02-01T09:06:50;38.6;;;20.6;;
28455;SDS011;15682;56.742;38.866;2023-02-01T09:08:50;38.6;;;20.8;;
28455;SDS011;15682;56.742;38.866;2023-02-01T09:10:50;44.2;;;22.5;;
28455;SDS011;15682;56.742;38.866;2023-02-01T09:12:50;38.9;;;20.7;;
28455;SDS011;15682;56.742;38.866;2023-02-01T09:14:50;41.4;;;21.4;;
28455;SDS011;15682;56.742;38.866;2023-02-01T09:16:50;38.9;;;21.1;;
28455;SDS011;15682;56.742;38.866;2023-02-01T09:18:50;39.8;;;21.0;;
28455;SDS011;15682;56.742;38.866;2023-02-01T09:20:50;41.2;;;21.9;;
28455;SDS011;15682;56.742;38.866;2023-02-01T09:22:50;40.8;;;21.8;;
28455;SDS011;15682;56.742;38.866;2023-02-01T09:24:50;39.8;;;20.8;;
28455;SDS011;15682;56.742;38.866;2023-02-01T09:26:50;39.2;;;21.2;;
28455;SDS011;15682;56.742;38.866;2023-02-01T09:28:49;38.4;;;20.7;;
28455;SDS011;15682;56.742;38.866;2023-02-01T09:30:49;41.5;;;22.5;;
28455;SDS011;15682;56.742;38.866;2023-02-01T09:32:49;40.6;;;20.9;;
28455;SDS011;15682;56.742;38.866;2023-02-01T09:34:50;40.3;;;21.1;;
28455;SDS011;15682;56.742;38.866;2023-02-01T09:36:49;38.4;;;21.1;;
28455;SDS011;15682;56.742;38.866;2023-02-01T09:38:49;39.9;;;22.0;;
28455;SDS011;15682;56.742;38.866;2023-02-01T09:40:49;41.1;;;22.2;;
28455;SDS011;15682;56.742;38.866;2023-02-01T09:42:54;44.2;;;22.3;;
28455;SDS011;15682;56.742;38.866;2023-02-01T09:44:53;43.5;;;23.0;;
28455;SDS011;15682;56.742;38.866;2023-02-01T09:46:49;47.5;;;22.3;;
28455;SDS011;15682;56.742;38.866;2023-02-01T09:48:49;42.8;;;22.6;;
28455;SDS011;15682;56.742;38.866;2023-02-01T09:50:50;41.1;;;22.3;;
28455;SDS011;15682;56.742;38.866;2023-02-01T09:52:52;41.1;;;22.8;;
28455;SDS011;15682;56.742;38.866;2023-02-01T09:54:49;43.1;;;22.3;;
28455;SDS011;15682;56.742;38.866;2023-02-01T09:56:49;44.1;;;22.9;;
28455;SDS011;15682;56.742;38.866;2023-02-01T09:58:49;41.9;;;22.1;;
28455;SDS011;15682;56.742;38.866;2023-02-01T10:00:50;42.3;;;22.7;;
28455;SDS011;15682;56.742;38.866;2023-02-01T10:02:49;42.9;;;22.3;;
28455;SDS011;15682;56.742;38.866;2023-02-01T10:04:48;49.3;;;22.5;;
28455;SDS011;15682;56.742;38.866;2023-02-01T10:06:53;45.3;;;22.6;;
28455;SDS011;15682;56.742;38.866;2023-02-01T10:08:55;40.2;;;21.9;;
28455;SDS011;15682;56.742;38.866;2023-02-01T10:10:49;43.0;;;22.7;;
28455;SDS011;15682;56.742;38.866;2023-02-01T10:12:51;40.9;;;22.9;;
28455;SDS011;15682;56.742;38.866;2023-02-01T10:14:51;42.6;;;22.2;;
28455;SDS011;15682;56.742;38.866;2023-02-01T10:16:50;41.6;;;22.4;;
28455;SDS011;15682;56.742;38.866;2023-02-01T10:18:51;40.9;;;21.9;;
28455;SDS011;15682;56.742;38.866;2023-02-01T10:20:52;45.5;;;22.3;;
28455;SDS011;15682;56.742;38.866;2023-02-01T10:22:50;43.9;;;23.2;;
28455;SDS011;15682;56.742;38.866;2023-02-01T10:24:48;42.4;;;22.2;;
28455;SDS011;15682;56.742;38.866;2023-02-01T10:26:49;43.4;;;23.2;;
28455;SDS011;15682;56.742;38.866;2023-02-01T10:28:49;46.6;;;23.7;;
28455;SDS011;15682;56.742;38.866;2023-02-01T10:30:48;42.7;;;23.1;;
28455;SDS011;15682;56.742;38.866;2023-02-01T10:32:48;41.4;;;22.3;;
28455;SDS011;15682;56.742;38.866;2023-02-01T10:34:49;44.5;;;23.4;;
28455;SDS011;15682;56.742;38.866;2023-02-01T10:36:50;47.1;;;25.3;;
28455;SDS011;15682;56.742;38.866;2023-02-01T10:38:48;47.1;;;25.0;;
28455;SDS011;15682;56.742;38.866;2023-02-01T10:40:47;49.7;;;24.6;;
28455;SDS011;15682;56.742;38.866;2023-02-01T10:42:47;47.8;;;25.7;;
28455;SDS011;15682;56.742;38.866;2023-02-01T10:44:47;48.0;;;25.9;;
28455;SDS011;15682;56.742;38.866;2023-02-01T10:46:47;47.7;;;25.7;;
28455;SDS011;15682;56.742;38.866;2023-02-01T10:48:47;49.9;;;26.7;;
28455;SDS011;15682;56.742;38.866;2023-02-01T10:50:49;47.5;;;25.6;;
28455;SDS011;15682;56.742;38.866;2023-02-01T10:52:48;43.6;;;24.1;;
28455;SDS011;15682;56.742;38.866;2023-02-01T10:54:47;43.2;;;23.7;;
28455;SDS011;15682;56.742;38.866;2023-02-01T10:56:48;41.1;;;23.3;;
28455;SDS011;15682;56.742;38.866;2023-02-01T10:58:47;41.3;;;22.8;;
28455;SDS011;15682;56.742;38.866;2023-02-01T11:00:48;42.3;;;22.6;;
28455;SDS011;15682;56.742;38.866;2023-02-01T11:02:47;43.9;;;23.8;;
28455;SDS011;15682;56.742;38.866;2023-02-01T11:04:47;45.1;;;22.7;;
28455;SDS011;15682;56.742;38.866;2023-02-01T11:06:47;43.5;;;23.2;;
28455;SDS011;15682;56.742;38.866;2023-02-01T11:08:47;43.4;;;23.2;;
28455;SDS011;15682;56.742;38.866;2023-02-01T11:10:47;40.5;;;22.0;;
28455;SDS011;15682;56.742;38.866;2023-02-01T11:12:46;43.4;;;23.8;;
28455;SDS011;15682;56.742;38.866;2023-02-01T11:14:46;44.1;;;23.3;;
28455;SDS011;15682;56.742;38.866;2023-02-01T11:16:47;44.1;;;23.5;;
28455;SDS011;15682;56.742;38.866;2023-02-01T11:18:46;44.5;;;24.0;;
28455;SDS011;15682;56.742;38.866;2023-02-01T11:20:46;46.3;;;25.1;;
28455;SDS011;15682;56.742;38.866;2023-02-01T11:22:47;55.9;;;26.2;;
28455;SDS011;15682;56.742;38.866;2023-02-01T11:24:46;48.3;;;25.2;;
28455;SDS011;15682;56.742;38.866;2023-02-01T11:26:46;48.0;;;25.1;;
28455;SDS011;15682;56.742;38.866;2023-02-01T11:28:50;50.5;;;26.3;;
28455;SDS011;15682;56.742;38.866;2023-02-01T11:30:46;54.8;;;28.1;;
28455;SDS011;15682;56.742;38.866;2023-02-01T11:32:46;53.0;;;28.4;;
28455;SDS011;15682;56.742;38.866;2023-02-01T11:34:46;57.0;;;27.9;;
28455;SDS011;15682;56.742;38.866;2023-02-01T11:36:46;49.4;;;26.0;;
28455;SDS011;15682;56.742;38.866;2023-02-01T11:38:46;48.1;;;26.0;;
28455;SDS011;15682;56.742;38.866;2023-02-01T11:40:46;49.0;;;24.9;;
28455;SDS011;15682;56.742;38.866;2023-02-01T11:42:53;48.0;;;25.0;;
28455;SDS011;15682;56.742;38.866;2023-02-01T11:44:46;46.7;;;24.3;;
28455;SDS011;15682;56.742;38.866;2023-02-01T11:46:45;44.7;;;24.0;;
28455;SDS011;15682;56.742;38.866;2023-02-01T11:48:45;44.9;;;23.6;;
28455;SDS011;15682;56.742;38.866;2023-02-01T11:50:46;43.2;;;23.5;;
28455;SDS011;15682;56.742;38.866;2023-02-01T11:52:50;43.2;;;22.6;;